Time;durP1;ratioP1;P1;durP2;ratioP2;P2;SDS_P1;SDS_P2;PMS_P1;PMS_P2;Temp;Humidity;BMP_temperature;BMP_pressure;BME280_temperature;BME280_humidity;BME280_pressure;Samples;Min_cycle;Max_cycle;Signal;HPM_P1;HPM_P2
2022/05/27 00:01:20;;;;;;;10.90;2.55;;;17.20;78.10;;;;;;5021201;28;20030;-67
2022/05/27 00:03:47;;;;;;;12.88;2.92;;;17.20;78.10;;;;;;5014409;28;20082;-66
2022/05/27 00:06:13;;;;;;;13.15;2.95;;;17.20;78.20;;;;;;5014859;28;20061;-67
2022/05/27 00:08:39;;;;;;;13.48;2.78;;;17.20;78.10;;;;;;5021750;28;20076;-67
2022/05/27 00:11:05;;;;;;;10.75;2.47;;;17.20;78.10;;;;;;5022394;28;20030;-67
2022/05/27 00:13:32;;;;;;;15.45;3.30;;;17.20;78.10;;;;;;5017283;28;20083;-67
2022/05/27 00:15:58;;;;;;;11.05;2.60;;;17.20;78.10;;;;;;5014932;28;20039;-67
2022/05/27 00:18:24;;;;;;;11.27;2.90;;;17.20;77.90;;;;;;5028866;28;20052;-67
2022/05/27 00:20:49;;;;;;;12.73;2.70;;;17.20;77.90;;;;;;5022665;28;20022;-68
2022/05/27 00:23:17;;;;;;;12.70;2.97;;;17.20;77.90;;;;;;5027382;28;20054;-67
2022/05/27 00:25:42;;;;;;;13.25;3.13;;;17.20;77.80;;;;;;5020201;28;20400;-67
2022/05/27 00:28:09;;;;;;;14.80;3.20;;;17.20;77.90;;;;;;5041174;28;20091;-67
2022/05/27 00:30:35;;;;;;;14.45;3.42;;;17.20;77.90;;;;;;5026117;28;20066;-68
2022/05/27 00:33:02;;;;;;;14.07;3.30;;;17.20;77.90;;;;;;5022114;28;20056;-68
2022/05/27 00:35:28;;;;;;;11.20;3.03;;;17.20;78.00;;;;;;5027873;28;20435;-68
2022/05/27 00:37:54;;;;;;;11.95;2.97;;;17.10;78.00;;;;;;5023495;28;20034;-68
2022/05/27 00:40:21;;;;;;;12.20;3.17;;;17.10;78.20;;;;;;5012760;28;20038;-68
2022/05/27 00:42:47;;;;;;;13.77;3.22;;;17.10;78.40;;;;;;5012811;28;20052;-68
2022/05/27 00:45:20;;;;;;;14.88;3.38;;;17.10;78.50;;;;;;5014011;28;20411;-67
2022/05/27 00:47:47;;;;;;;15.38;3.22;;;17.10;78.70;;;;;;5016842;28;20092;-67
2022/05/27 00:50:17;;;;;;;14.15;3.50;;;17.10;78.80;;;;;;5018865;28;20021;-67
2022/05/27 00:52:45;;;;;;;11.32;3.10;;;17.10;78.80;;;;;;5029772;28;20120;-67
2022/05/27 00:55:20;;;;;;;15.07;3.10;;;17.10;78.70;;;;;;5015397;28;20029;-67
2022/05/27 00:58:09;;;;;;;13.15;2.78;;;17.10;78.70;;;;;;5043243;28;20033;-67
2022/05/27 01:00:35;;;;;;;12.57;2.78;;;17.10;78.70;;;;;;5026110;28;20017;-67
2022/05/27 01:03:01;;;;;;;13.10;3.10;;;17.10;78.70;;;;;;5029232;28;20397;-67
2022/05/27 01:05:27;;;;;;;10.90;2.92;;;17.10;78.80;;;;;;5019731;28;20069;-67
2022/05/27 01:07:59;;;;;;;13.05;3.20;;;17.10;78.90;;;;;;5023280;28;20061;-67
2022/05/27 01:10:26;;;;;;;12.70;3.35;;;17.00;79.00;;;;;;5031800;28;20075;-67
2022/05/27 01:13:16;;;;;;;12.60;3.45;;;17.00;80.00;;;;;;5026760;28;20025;-67
2022/05/27 01:15:51;;;;;;;15.07;3.20;;;17.00;79.00;;;;;;5011946;28;20026;-67
2022/05/27 01:22:11;;;;;;;13.30;3.20;;;17.00;79.10;;;;;;5026525;28;20052;-67
2022/05/27 01:25:16;;;;;;;13.02;3.10;;;16.90;79.10;;;;;;5028048;28;20460;-67
2022/05/27 01:28:13;;;;;;;15.90;3.45;;;16.90;79.10;;;;;;5005592;28;20097;-67
2022/05/27 01:30:44;;;;;;;15.40;3.25;;;16.90;79.10;;;;;;5005334;28;20057;-67
2022/05/27 01:33:27;;;;;;;13.90;3.58;;;16.80;79.10;;;;;;5006447;28;20042;-67
2022/05/27 01:36:11;;;;;;;17.75;3.42;;;16.80;79.20;;;;;;5011861;28;20156;-67
2022/05/27 01:38:56;;;;;;;15.80;3.17;;;16.80;79.10;;;;;;5005864;28;20120;-67
2022/05/27 01:42:01;;;;;;;17.83;3.50;;;16.70;79.10;;;;;;5003113;28;20038;-67
2022/05/27 01:44:51;;;;;;;15.00;3.25;;;16.70;79.20;;;;;;5007880;28;20919;-67
2022/05/27 01:47:43;;;;;;;14.48;3.20;;;16.60;79.20;;;;;;5008981;28;20045;-67
2022/05/27 01:50:20;;;;;;;12.68;4.30;;;16.50;79.20;;;;;;5001103;28;20520;-67
2022/05/27 01:53:01;;;;;;;11.18;3.00;;;16.50;79.20;;;;;;5008887;28;20049;-67
2022/05/27 01:55:36;;;;;;;15.98;3.42;;;16.50;79.30;;;;;;5008679;28;20026;-67
2022/05/27 01:58:12;;;;;;;11.18;2.85;;;16.40;79.00;;;;;;5008931;28;20042;-67
2022/05/27 02:00:41;;;;;;;15.80;3.05;;;16.30;78.90;;;;;;5017668;28;20076;-68
2022/05/27 02:03:28;;;;;;;22.50;3.28;;;16.30;79.00;;;;;;5019265;28;20463;-67
2022/05/27 02:06:10;;;;;;;18.17;3.33;;;16.30;79.10;;;;;;5028135;28;20064;-67
2022/05/27 02:08:44;;;;;;;18.55;3.20;;;16.30;79.00;;;;;;5020807;28;20029;-67
2022/05/27 02:11:15;;;;;;;17.02;3.35;;;16.20;79.10;;;;;;5024260;28;20664;-67
2022/05/27 02:13:50;;;;;;;11.15;3.30;;;16.20;80.20;;;;;;5030958;28;20488;-67
2022/05/27 02:16:24;;;;;;;12.65;2.88;;;16.20;79.40;;;;;;5030761;28;20030;-67
2022/05/27 02:18:58;;;;;;;13.43;3.00;;;16.20;79.70;;;;;;5015531;28;20033;-68
2022/05/27 02:21:31;;;;;;;14.93;3.20;;;16.10;79.70;;;;;;5015486;28;20057;-67
2022/05/27 02:24:02;;;;;;;9.90;2.88;;;16.20;79.90;;;;;;5032908;28;20064;-67
2022/05/27 02:26:31;;;;;;;;;;;16.20;80.00;;;;;;5028977;28;20106;-67
2022/05/27 02:29:01;;;;;;;13.98;3.13;;;16.10;79.90;;;;;;5029637;28;19910;-67
2022/05/27 02:31:32;;;;;;;11.05;2.65;;;16.10;80.10;;;;;;5019150;28;20108;-67
2022/05/27 02:37:26;;;;;;;11.35;3.15;;;16.10;80.60;;;;;;5016153;28;20036;-67
2022/05/27 02:39:53;;;;;;;18.40;3.33;;;16.10;80.70;;;;;;5011712;28;20246;-67
2022/05/27 02:42:44;;;;;;;10.75;3.15;;;16.20;80.90;;;;;;5014339;28;20031;-67
2022/05/27 02:45:48;;;;;;;15.60;3.15;;;16.20;81.10;;;;;;5029751;28;20086;-67
2022/05/27 02:48:22;;;;;;;12.82;3.10;;;16.20;81.20;;;;;;5022226;28;20041;-67
2022/05/27 02:51:04;;;;;;;10.95;3.17;;;16.20;81.30;;;;;;5018893;28;20061;-67
2022/05/27 02:53:33;;;;;;;10.18;2.92;;;16.20;81.50;;;;;;5018856;28;20046;-67
2022/05/27 02:56:24;;;;;;;10.75;2.90;;;16.20;81.60;;;;;;5023780;28;20060;-67
2022/05/27 02:58:50;;;;;;;15.75;2.85;;;16.20;81.60;;;;;;5026046;28;20040;-67
2022/05/27 03:01:16;;;;;;;11.23;2.80;;;16.20;81.60;;;;;;5023681;28;20028;-67
2022/05/27 03:03:43;;;;;;;14.25;3.17;;;16.20;81.80;;;;;;5030114;28;20033;-67
2022/05/27 03:06:26;;;;;;;10.45;3.20;;;16.20;82.00;;;;;;5024031;28;20021;-67
2022/05/27 03:09:36;;;;;;;12.25;3.38;;;16.20;82.20;;;;;;5017575;28;20061;-67
2022/05/27 03:12:19;;;;;;;9.45;2.70;;;16.20;82.30;;;;;;4997481;28;20049;-67
2022/05/27 03:15:04;;;;;;;12.30;3.40;;;16.10;82.30;;;;;;4988012;28;20034;-67
2022/05/27 03:17:54;;;;;;;8.88;2.90;;;16.20;82.30;;;;;;4987563;28;20085;-67
2022/05/27 03:20:44;;;;;;;13.10;3.13;;;16.20;82.20;;;;;;4995194;28;20061;-68
2022/05/27 03:23:46;;;;;;;12.43;3.00;;;16.20;82.30;;;;;;4991877;28;20034;-67
2022/05/27 03:26:38;;;;;;;8.35;2.88;;;16.20;82.10;;;;;;4993974;28;20030;-67
2022/05/27 03:29:32;;;;;;;8.82;2.85;;;16.10;82.10;;;;;;4992735;28;20403;-67
2022/05/27 03:32:14;;;;;;;12.27;3.15;;;16.20;82.30;;;;;;4981603;28;20092;-67
2022/05/27 03:34:50;;;;;;;11.70;3.08;;;16.20;82.20;;;;;;4987097;28;20042;-67
2022/05/27 03:37:21;;;;;;;14.90;3.63;;;16.20;82.10;;;;;;4992135;28;20041;-67
2022/05/27 03:39:59;;;;;;;16.05;3.53;;;16.20;82.20;;;;;;5000945;28;20072;-67
2022/05/27 03:42:26;;;;;;;12.95;3.22;;;16.20;82.30;;;;;;5014234;28;20043;-67
2022/05/27 03:45:17;;;;;;;12.80;2.97;;;16.20;82.20;;;;;;5018121;28;20041;-68
2022/05/27 03:47:44;;;;;;;12.48;3.40;;;16.20;82.20;;;;;;5018428;28;20046;-67
2022/05/27 03:50:16;;;;;;;14.88;3.78;;;16.20;82.10;;;;;;5026883;28;20049;-67
2022/05/27 03:52:48;;;;;;;11.98;3.47;;;16.30;82.10;;;;;;5028595;28;20114;-67
2022/05/27 03:55:17;;;;;;;16.05;3.83;;;16.30;82.10;;;;;;5028998;28;20060;-67
2022/05/27 03:57:43;;;;;;;14.05;3.50;;;16.30;82.00;;;;;;5028915;28;20400;-67
2022/05/27 04:00:11;;;;;;;10.45;3.45;;;16.30;82.00;;;;;;5037486;28;20021;-67
2022/05/27 04:02:37;;;;;;;14.38;3.83;;;16.30;81.80;;;;;;5019589;28;20116;-67
2022/05/27 04:05:04;;;;;;;9.48;3.65;;;16.20;81.80;;;;;;5023363;28;20088;-67
2022/05/27 04:07:30;;;;;;;12.93;3.80;;;16.30;81.80;;;;;;5026995;28;20033;-69
2022/05/27 04:09:56;;;;;;;14.20;3.65;;;16.30;81.90;;;;;;5024731;28;20459;-68
2022/05/27 04:12:21;;;;;;;12.43;3.30;;;16.30;81.80;;;;;;5033788;28;20040;-67
2022/05/27 04:14:53;;;;;;;12.40;3.35;;;16.30;81.80;;;;;;5017015;28;20065;-67
2022/05/27 04:17:30;;;;;;;15.77;3.55;;;16.30;81.80;;;;;;5017358;28;20029;-67
2022/05/27 04:20:00;;;;;;;14.38;3.30;;;16.30;81.70;;;;;;5018167;28;20037;-67
2022/05/27 04:22:26;;;;;;;15.95;3.70;;;16.30;81.60;;;;;;5039371;28;20111;-67
2022/05/27 04:24:52;;;;;;;16.10;3.85;;;16.30;81.60;;;;;;5028465;28;20535;-67
2022/05/27 04:27:20;;;;;;;15.90;3.65;;;16.30;81.60;;;;;;5029475;28;20112;-67
2022/05/27 04:29:49;;;;;;;14.45;3.72;;;16.30;81.60;;;;;;5026414;28;20152;-68
2022/05/27 04:32:16;;;;;;;12.83;3.80;;;16.30;81.40;;;;;;5021792;28;20021;-67
2022/05/27 04:34:43;;;;;;;12.88;3.90;;;16.30;81.30;;;;;;5025814;28;20283;-68
2022/05/27 04:37:10;;;;;;;12.75;3.50;;;16.30;81.20;;;;;;5025562;28;20068;-67
2022/05/27 04:39:36;;;;;;;16.98;3.80;;;16.30;81.20;;;;;;5028057;28;20026;-68
2022/05/27 04:42:02;;;;;;;13.27;3.70;;;16.30;81.30;;;;;;5015905;28;20041;-67
2022/05/27 04:44:28;;;;;;;12.40;3.40;;;16.30;81.50;;;;;;5023101;28;20061;-67
2022/05/27 04:46:54;;;;;;;12.43;3.47;;;16.30;81.50;;;;;;5023767;28;20107;-67
2022/05/27 04:52:05;;;;;;;11.43;3.10;;;16.40;81.50;;;;;;5019305;28;20033;-67
2022/05/27 04:54:30;;;;;;;12.18;3.50;;;16.40;81.40;;;;;;5027899;28;20374;-67
2022/05/27 04:56:57;;;;;;;14.27;3.60;;;16.40;81.20;;;;;;5024819;28;20079;-68
2022/05/27 04:59:23;;;;;;;13.63;3.33;;;16.40;82.10;;;;;;5028092;28;20041;-68
2022/05/27 05:01:49;;;;;;;13.48;3.60;;;16.40;81.00;;;;;;5025837;28;20060;-66
2022/05/27 05:04:15;;;;;;;12.77;3.08;;;16.40;81.00;;;;;;5027032;28;20045;-67
2022/05/27 05:06:42;;;;;;;13.65;3.28;;;16.40;81.00;;;;;;5026375;28;20424;-67
2022/05/27 05:09:08;;;;;;;10.50;3.05;;;16.40;80.90;;;;;;5029059;28;20033;-67
2022/05/27 05:11:34;;;;;;;12.85;3.28;;;16.50;80.70;;;;;;5026441;28;20112;-68
2022/05/27 05:14:00;;;;;;;9.10;3.03;;;16.50;80.60;;;;;;5025544;28;20037;-68
2022/05/27 05:16:26;;;;;;;15.57;2.90;;;16.50;80.60;;;;;;5026698;28;20030;-67
2022/05/27 05:18:52;;;;;;;9.50;2.83;;;16.50;80.60;;;;;;5025503;28;20056;-67
2022/05/27 05:21:18;;;;;;;11.65;2.88;;;16.50;80.50;;;;;;5035123;28;20052;-68
2022/05/27 05:23:44;;;;;;;8.55;2.47;;;16.50;80.40;;;;;;5031696;28;20106;-68
2022/05/27 05:26:10;;;;;;;10.90;3.00;;;16.60;80.20;;;;;;5032895;28;20029;-68
2022/05/27 05:28:36;;;;;;;10.23;2.78;;;16.60;79.80;;;;;;5031941;28;20496;-68
2022/05/27 05:31:01;;;;;;;9.75;2.35;;;16.60;79.70;;;;;;5033813;28;20037;-68
2022/05/27 05:33:27;;;;;;;8.18;2.97;;;16.60;79.60;;;;;;5029945;28;20079;-69
2022/05/27 05:35:53;;;;;;;11.90;2.70;;;16.60;79.70;;;;;;5028471;28;20087;-68
2022/05/27 05:38:19;;;;;;;13.35;2.78;;;16.60;79.80;;;;;;5023428;28;20085;-68
2022/05/27 05:40:46;;;;;;;8.98;2.83;;;16.70;79.90;;;;;;5031914;28;20374;-68
2022/05/27 05:43:13;;;;;;;12.10;2.72;;;16.70;80.10;;;;;;5029212;28;20373;-68
2022/05/27 05:45:39;;;;;;;7.13;2.33;;;16.70;80.10;;;;;;5015356;28;20026;-69
2022/05/27 05:48:06;;;;;;;10.30;3.00;;;16.70;80.20;;;;;;5029910;28;20121;-69
2022/05/27 05:50:33;;;;;;;13.65;2.78;;;16.70;80.20;;;;;;5025626;28;20022;-68
2022/05/27 05:52:59;;;;;;;10.38;3.05;;;16.70;80.10;;;;;;5030786;28;20025;-69
2022/05/27 05:55:26;;;;;;;9.13;2.58;;;16.70;80.00;;;;;;5030724;28;20029;-68
2022/05/27 05:57:52;;;;;;;9.73;2.67;;;16.70;80.00;;;;;;5015755;28;20158;-68
2022/05/27 06:00:25;;;;;;;9.32;2.80;;;16.70;80.20;;;;;;5031526;28;20029;-68
2022/05/27 06:02:52;;;;;;;10.43;2.80;;;16.70;80.20;;;;;;5029009;28;20025;-69
2022/05/27 06:05:18;;;;;;;10.20;2.53;;;16.70;80.50;;;;;;5027644;28;20515;-69
2022/05/27 06:07:44;;;;;;;11.45;2.40;;;16.70;80.80;;;;;;5025674;28;20080;-69
2022/05/27 06:10:12;;;;;;;7.78;2.20;;;16.70;80.80;;;;;;5018042;28;20028;-68
2022/05/27 06:12:38;;;;;;;10.82;2.63;;;16.80;80.60;;;;;;5025761;28;20030;-68
2022/05/27 06:15:08;;;;;;;14.50;2.22;;;16.90;80.30;;;;;;5030720;28;20140;-68
2022/05/27 06:17:33;;;;;;;10.80;2.30;;;17.10;79.50;;;;;;5029030;28;20072;-69
2022/05/27 06:20:00;;;;;;;9.05;2.28;;;17.20;78.90;;;;;;5037804;28;20049;-68
2022/05/27 06:22:25;;;;;;;10.00;2.13;;;17.30;78.30;;;;;;5024253;28;20060;-69
2022/05/27 06:24:51;;;;;;;8.25;2.67;;;17.40;77.70;;;;;;5027737;28;20057;-68
2022/05/27 06:27:17;;;;;;;9.80;2.30;;;17.40;77.50;;;;;;5031145;28;20053;-69
2022/05/27 06:35:12;;;;;;;8.98;1.95;;;17.70;76.40;;;;;;5033129;28;20035;-69
2022/05/27 06:37:37;;;;;;;10.80;2.08;;;17.80;76.20;;;;;;5037376;28;20044;-69
2022/05/27 06:40:06;;;;;;;9.35;2.00;;;17.80;75.80;;;;;;5036612;28;20021;-68
2022/05/27 06:42:31;;;;;;;9.85;1.95;;;17.80;75.70;;;;;;5014677;28;20048;-69
2022/05/27 06:44:57;;;;;;;6.25;1.67;;;17.80;75.70;;;;;;5027456;28;20480;-69
2022/05/27 06:47:23;;;;;;;6.28;1.80;;;18.50;72.90;;;;;;5032300;28;20053;-69
2022/05/27 06:49:49;;;;;;;6.43;2.00;;;19.80;66.80;;;;;;5021989;28;20030;-68
2022/05/27 06:52:15;;;;;;;5.35;1.65;;;19.70;66.30;;;;;;5028500;28;20025;-69
2022/05/27 06:54:44;;;;;;;7.03;1.85;;;19.70;66.10;;;;;;5037527;28;20125;-69
2022/05/27 06:57:10;;;;;;;9.90;2.03;;;19.40;67.80;;;;;;5029647;28;20118;-68
2022/05/27 06:59:36;;;;;;;6.32;1.95;;;19.20;69.00;;;;;;5029424;28;20595;-69
2022/05/27 07:02:03;;;;;;;6.32;1.70;;;19.30;69.20;;;;;;5029346;28;20025;-69
2022/05/27 07:04:32;;;;;;;7.00;1.60;;;19.20;69.70;;;;;;5017181;28;20033;-69
2022/05/27 07:06:58;;;;;;;6.43;1.60;;;19.20;69.80;;;;;;5029507;28;20515;-68
2022/05/27 07:09:25;;;;;;;6.15;1.52;;;19.20;70.00;;;;;;5028294;28;20029;-69
2022/05/27 07:11:57;;;;;;;8.82;1.70;;;19.20;69.60;;;;;;5031269;28;20558;-68
2022/05/27 07:14:23;;;;;;;3.75;1.58;;;19.40;68.90;;;;;;5033661;28;20029;-68
2022/05/27 07:16:49;;;;;;;10.77;1.85;;;19.50;68.10;;;;;;5023852;28;20033;-69
2022/05/27 07:19:19;;;;;;;9.30;1.77;;;19.40;68.30;;;;;;5026444;28;20167;-68
2022/05/27 07:21:45;;;;;;;10.13;1.90;;;19.30;68.60;;;;;;5025518;28;20109;-70
2022/05/27 07:24:16;;;;;;;7.13;2.05;;;19.10;70.20;;;;;;5028053;28;20085;-68
2022/05/27 07:26:42;;;;;;;7.95;2.00;;;19.00;70.10;;;;;;5026799;28;20021;-67
2022/05/27 07:29:09;;;;;;;5.30;1.77;;;19.00;70.50;;;;;;5021758;28;20038;-69
2022/05/27 07:31:36;;;;;;;9.02;2.00;;;19.00;70.10;;;;;;5024874;28;20025;-67
2022/05/27 07:34:03;;;;;;;8.43;1.90;;;19.00;70.20;;;;;;5026307;28;20116;-67
2022/05/27 07:36:29;;;;;;;8.65;1.98;;;19.10;70.50;;;;;;5025915;28;20108;-67
2022/05/27 07:38:56;;;;;;;7.05;1.80;;;19.20;70.40;;;;;;5029632;28;20551;-67
2022/05/27 07:41:22;;;;;;;7.57;1.90;;;19.30;70.00;;;;;;5022579;28;20025;-68
2022/05/27 07:43:50;;;;;;;7.75;1.80;;;19.50;69.30;;;;;;5029376;28;20029;-67
2022/05/27 07:46:16;;;;;;;5.10;1.70;;;19.90;67.60;;;;;;5017564;28;20031;-67
2022/05/27 07:48:45;;;;;;;8.90;1.83;;;20.00;67.60;;;;;;5031562;28;20770;-67
2022/05/27 07:51:11;;;;;;;7.05;1.73;;;20.00;67.30;;;;;;5024710;28;20091;-67
2022/05/27 07:53:38;;;;;;;6.55;1.65;;;20.00;66.90;;;;;;5039382;28;20044;-67
2022/05/27 07:56:09;;;;;;;7.22;1.55;;;20.10;66.80;;;;;;5027980;28;20028;-67
2022/05/27 07:58:35;;;;;;;;;;;20.10;66.90;;;;;;5018899;28;20045;-67
2022/05/27 08:01:01;;;;;;;7.70;1.73;;;20.20;66.70;;;;;;5019367;28;19924;-67
2022/05/27 08:03:28;;;;;;;9.88;1.52;;;20.20;65.80;;;;;;5028393;28;20033;-67
2022/05/27 08:05:55;;;;;;;9.30;1.80;;;20.20;65.70;;;;;;5039512;28;20059;-66
2022/05/27 08:08:22;;;;;;;8.60;1.90;;;20.10;65.90;;;;;;5026584;28;20037;-67
2022/05/27 08:10:48;;;;;;;8.73;2.15;;;20.20;65.50;;;;;;5021919;28;20122;-67
2022/05/27 08:13:14;;;;;;;5.80;1.58;;;20.30;65.00;;;;;;5027953;28;20032;-66
2022/05/27 08:15:40;;;;;;;9.80;1.75;;;20.40;64.70;;;;;;5017628;28;20048;-67
2022/05/27 08:18:06;;;;;;;6.78;1.67;;;20.60;65.10;;;;;;5024900;28;20037;-66
2022/05/27 08:20:34;;;;;;;7.10;1.60;;;20.70;65.20;;;;;;5027454;28;20030;-67
2022/05/27 08:23:01;;;;;;;9.38;1.85;;;20.90;63.80;;;;;;5022024;28;20129;-67
2022/05/27 08:25:28;;;;;;;8.25;1.70;;;21.00;63.20;;;;;;5022557;28;20033;-67
2022/05/27 08:27:54;;;;;;;6.88;1.80;;;21.10;63.40;;;;;;5027718;28;20064;-67
2022/05/27 08:30:24;;;;;;;6.15;1.60;;;21.10;64.10;;;;;;5028767;28;20046;-67
2022/05/27 08:32:50;;;;;;;7.55;1.80;;;21.10;63.20;;;;;;5027367;28;20095;-67
2022/05/27 08:38:07;;;;;;;6.00;1.70;;;21.00;63.60;;;;;;5026681;28;20091;-67
2022/05/27 08:40:54;;;;;;;4.75;1.50;;;20.90;63.70;;;;;;5020301;28;20405;-67
2022/05/27 08:43:43;;;;;;;9.13;2.15;;;20.70;63.80;;;;;;5024851;28;20033;-67
2022/05/27 08:46:26;;;;;;;10.32;1.92;;;20.60;64.60;;;;;;5023127;28;20021;-68
2022/05/27 08:48:58;;;;;;;5.68;1.65;;;20.50;65.40;;;;;;5021514;28;20037;-67
2022/05/27 08:51:45;;;;;;;8.18;1.65;;;20.40;65.40;;;;;;5022061;28;20048;-67
2022/05/27 08:54:48;;;;;;;6.68;1.67;;;20.30;65.70;;;;;;5026623;28;20694;-67
2022/05/27 09:00:14;;;;;;;6.78;1.70;;;20.20;67.00;;;;;;5023920;28;20042;-67
2022/05/27 09:02:55;;;;;;;5.50;1.67;;;20.20;66.90;;;;;;5021399;28;20120;-67
2022/05/27 09:05:29;;;;;;;6.40;1.40;;;20.30;67.50;;;;;;5025332;28;20045;-67
2022/05/27 09:08:01;;;;;;;7.13;1.75;;;20.30;66.50;;;;;;5018967;28;20651;-66
2022/05/27 09:11:04;;;;;;;4.72;1.20;;;20.30;66.70;;;;;;5023646;28;20142;-67
2022/05/27 09:13:45;;;;;;;6.30;1.52;;;20.40;67.40;;;;;;5023021;28;20026;-67
2022/05/27 09:16:22;;;;;;;7.25;1.50;;;20.30;67.30;;;;;;5035319;28;20044;-67
2022/05/27 09:18:58;;;;;;;7.05;1.45;;;20.30;67.60;;;;;;5021439;28;20509;-67
2022/05/27 09:21:30;;;;;;;7.00;1.60;;;20.30;67.60;;;;;;5024645;28;20037;-67
2022/05/27 09:24:15;;;;;;;5.80;1.42;;;20.30;67.50;;;;;;5024521;28;20049;-67
2022/05/27 09:26:50;;;;;;;7.85;1.63;;;20.20;67.70;;;;;;5017233;28;20037;-67
2022/05/27 09:29:31;;;;;;;6.60;1.60;;;20.30;68.30;;;;;;5015463;28;20637;-67
2022/05/27 09:32:10;;;;;;;7.05;1.67;;;20.20;68.00;;;;;;5020837;28;20029;-67
2022/05/27 09:34:41;;;;;;;6.05;1.73;;;20.30;68.20;;;;;;5020468;28;20029;-67
2022/05/27 09:37:10;;;;;;;4.53;1.52;;;20.30;68.10;;;;;;5026812;28;20041;-66
2022/05/27 09:39:36;;;;;;;4.88;1.60;;;20.30;68.10;;;;;;5025448;28;20392;-67
2022/05/27 09:43:01;;;;;;;4.50;1.38;;;20.30;68.00;;;;;;5025828;28;20187;-66
2022/05/27 09:45:26;;;;;;;4.30;1.20;;;20.40;67.90;;;;;;4979355;28;20092;-67
2022/05/27 09:47:58;;;;;;;3.15;1.30;;;20.40;68.30;;;;;;4982019;28;20039;-67
2022/05/27 09:50:34;;;;;;;6.70;1.30;;;20.40;68.20;;;;;;4987553;28;20049;-67
2022/05/27 09:53:01;;;;;;;6.43;1.38;;;20.50;68.00;;;;;;4979622;28;20030;-67
2022/05/27 09:55:37;;;;;;;3.00;1.30;;;20.80;67.60;;;;;;4975445;28;20076;-68
2022/05/27 09:58:06;;;;;;;3.70;1.17;;;21.00;66.90;;;;;;4980222;28;20042;-67
2022/05/27 10:00:42;;;;;;;2.78;1.10;;;21.10;66.00;;;;;;4981357;28;20043;-67
2022/05/27 10:03:26;;;;;;;4.70;1.35;;;21.30;65.60;;;;;;4979208;28;20129;-67
2022/05/27 10:06:01;;;;;;;2.78;1.20;;;21.70;64.20;;;;;;4986561;28;20030;-67
2022/05/27 10:08:48;;;;;;;2.88;1.20;;;22.00;63.40;;;;;;4982631;28;20522;-67
2022/05/27 10:11:26;;;;;;;4.35;1.17;;;22.00;63.60;;;;;;4930649;29;20063;-67
2022/05/27 10:14:10;;;;;;;3.47;1.10;;;22.00;63.10;;;;;;4925887;29;20043;-66
2022/05/27 10:16:41;;;;;;;4.20;1.20;;;22.10;62.90;;;;;;4960104;28;20141;-67
2022/05/27 10:19:21;;;;;;;10.23;1.63;;;22.10;63.00;;;;;;4967500;28;20540;-67
2022/05/27 10:21:57;;;;;;;4.15;0.90;;;22.20;62.30;;;;;;4966179;28;20084;-67
2022/05/27 10:24:30;;;;;;;2.78;1.00;;;22.40;61.80;;;;;;4968498;28;20429;-67
2022/05/27 10:27:14;;;;;;;4.95;0.90;;;22.70;60.60;;;;;;4969510;28;20053;-67
2022/05/27 10:30:00;;;;;;;2.95;1.10;;;22.90;60.30;;;;;;4969031;28;20070;-67
2022/05/27 10:32:31;;;;;;;3.33;1.15;;;23.00;60.20;;;;;;4968472;28;20499;-67
2022/05/27 10:34:58;;;;;;;4.32;1.13;;;23.20;59.50;;;;;;4968166;28;20043;-67
2022/05/27 10:37:44;;;;;;;5.55;1.30;;;23.40;58.80;;;;;;4966135;28;20510;-67
2022/05/27 10:40:35;;;;;;;3.22;1.20;;;23.50;57.90;;;;;;4966989;28;20073;-67
2022/05/27 10:43:31;;;;;;;4.28;1.00;;;23.80;56.60;;;;;;4963501;28;20046;-68
2022/05/27 10:46:03;;;;;;;2.17;0.80;;;24.20;56.60;;;;;;4964207;28;20046;-67
2022/05/27 10:48:41;;;;;;;4.45;1.25;;;24.40;55.00;;;;;;4999437;28;20064;-67
2022/05/27 10:51:21;;;;;;;4.57;1.20;;;24.60;54.90;;;;;;5026855;28;20044;-68
2022/05/27 10:54:16;;;;;;;35.38;2.00;;;24.70;54.00;;;;;;5028947;28;20083;-67
2022/05/27 11:03:05;;;;;;;3.25;0.90;;;25.60;50.40;;;;;;5025151;28;20072;-67
2022/05/27 11:06:00;;;;;;;5.10;1.10;;;25.30;51.60;;;;;;5028929;28;20516;-70
2022/05/27 11:08:30;;;;;;;5.18;0.95;;;24.90;52.00;;;;;;5021003;28;20157;-67
2022/05/27 11:11:33;;;;;;;4.93;1.20;;;24.60;52.60;;;;;;5020114;28;20025;-68
2022/05/27 11:16:59;;;;;;;3.28;1.10;;;24.00;54.10;;;;;;5026159;28;20542;-67
2022/05/27 11:19:57;;;;;;;3.80;1.30;;;23.80;54.70;;;;;;5025281;28;20037;-68
2022/05/27 11:22:37;;;;;;;5.35;1.08;;;23.40;55.80;;;;;;5022755;28;20120;-68
2022/05/27 11:25:48;;;;;;;2.27;0.80;;;23.10;57.10;;;;;;5028951;28;20037;-68
2022/05/27 11:28:18;;;;;;;2.08;0.93;;;22.80;58.30;;;;;;5014349;28;20071;-68
2022/05/27 11:31:01;;;;;;;4.45;1.10;;;22.60;59.30;;;;;;5025340;28;20049;-67
2022/05/27 11:33:37;;;;;;;4.55;1.10;;;22.40;60.00;;;;;;5018405;28;20523;-67
2022/05/27 11:36:13;;;;;;;3.80;1.00;;;22.30;60.90;;;;;;5025422;28;20029;-69
2022/05/27 11:39:00;;;;;;;3.00;0.93;;;22.30;60.90;;;;;;5027918;28;20128;-69
2022/05/27 11:41:53;;;;;;;2.28;0.95;;;22.30;61.50;;;;;;5017387;28;20033;-69
2022/05/27 11:44:34;;;;;;;3.40;0.98;;;22.30;61.20;;;;;;5021826;28;20040;-69
2022/05/27 11:47:25;;;;;;;2.22;0.88;;;22.40;61.20;;;;;;5025343;28;20033;-70
2022/05/27 11:50:21;;;;;;;2.72;0.90;;;22.40;61.60;;;;;;5023048;28;20096;-71
2022/05/27 11:53:09;;;;;;;3.38;0.90;;;22.50;62.00;;;;;;5007456;28;20044;-68
2022/05/27 11:56:04;;;;;;;2.60;1.00;;;22.50;61.50;;;;;;5020198;28;20037;-70
2022/05/27 11:58:58;;;;;;;1.80;0.75;;;22.50;61.10;;;;;;5001543;28;20072;-69
2022/05/27 12:01:48;;;;;;;4.50;1.00;;;22.50;61.10;;;;;;5018900;28;20033;-69
2022/05/27 12:04:32;;;;;;;;;;;22.40;60.90;;;;;;5020032;28;20046;-69
2022/05/27 12:07:04;;;;;;;2.38;0.90;;;22.40;61.30;;;;;;5022375;28;19917;-69
2022/05/27 12:09:54;;;;;;;3.88;0.70;;;22.40;61.60;;;;;;5025440;28;20186;-69
2022/05/27 12:12:22;;;;;;;;;;;22.40;60.80;;;;;;5022702;28;20412;-69
2022/05/27 12:15:01;;;;;;;3.35;1.00;;;22.50;60.60;;;;;;5023851;28;19963;-70
2022/05/27 12:17:57;;;;;;;2.42;0.90;;;22.60;60.20;;;;;;5021584;28;20025;-70
2022/05/27 12:20:51;;;;;;;3.05;0.90;;;22.70;60.50;;;;;;5020375;28;20095;-70
2022/05/27 12:23:22;;;;;;;1.73;0.80;;;22.70;60.80;;;;;;5028688;28;20041;-69
2022/05/27 12:25:51;;;;;;;3.08;1.00;;;22.70;60.30;;;;;;5026348;28;20041;-70
2022/05/27 12:28:31;;;;;;;2.83;1.00;;;22.80;60.50;;;;;;5027078;28;20397;-70
2022/05/27 12:31:00;;;;;;;3.57;1.00;;;22.80;60.50;;;;;;5023344;28;20071;-69
2022/05/27 12:33:28;;;;;;;2.58;0.95;;;22.80;60.60;;;;;;5024455;28;20057;-69
2022/05/27 12:36:07;;;;;;;1.83;0.80;;;22.80;60.70;;;;;;5030947;28;20027;-69
2022/05/27 12:38:35;;;;;;;2.67;0.90;;;22.80;60.70;;;;;;5020414;28;20100;-69
2022/05/27 12:41:08;;;;;;;3.65;1.00;;;22.80;60.70;;;;;;5023852;28;20036;-69
2022/05/27 12:43:37;;;;;;;11.68;3.90;;;22.80;60.30;;;;;;5032163;28;20033;-69
2022/05/27 12:46:03;;;;;;;9.05;1.80;;;22.80;60.00;;;;;;5027188;28;20038;-68
2022/05/27 12:48:39;;;;;;;1.45;0.60;;;22.90;59.80;;;;;;5026216;28;20033;-70
2022/05/27 12:51:31;;;;;;;1.27;0.55;;;23.00;59.50;;;;;;5030871;28;20061;-68
2022/05/27 12:53:59;;;;;;;2.55;0.73;;;23.00;59.50;;;;;;5030512;28;20119;-68
2022/05/27 13:02:14;;;;;;;1.45;0.50;;;22.80;60.00;;;;;;5022789;28;20044;-69
2022/05/27 13:04:46;;;;;;;2.03;0.50;;;22.70;59.70;;;;;;5033180;28;20040;-68
2022/05/27 13:07:12;;;;;;;2.78;0.47;;;22.70;59.50;;;;;;5016029;28;20060;-68
2022/05/27 13:09:47;;;;;;;0.98;0.60;;;22.70;59.00;;;;;;5029155;28;20045;-68
2022/05/27 13:12:47;;;;;;;1.10;0.55;;;22.70;59.60;;;;;;5014017;28;20034;-68
2022/05/27 13:15:16;;;;;;;;;;;22.70;59.90;;;;;;5026215;28;20098;-68
2022/05/27 13:17:50;;;;;;;1.88;0.60;;;22.70;59.10;;;;;;5020722;28;20039;-69
2022/05/27 13:20:16;;;;;;;1.17;0.55;;;22.70;59.00;;;;;;5026250;28;20452;-69
2022/05/27 13:23:23;;;;;;;2.30;0.60;;;22.70;58.90;;;;;;5026681;28;20021;-68
2022/05/27 13:26:31;;;;;;;5.07;0.75;;;22.70;60.00;;;;;;4991605;28;20524;-68
2022/05/27 13:28:58;;;;;;;4.72;0.93;;;22.90;60.20;;;;;;4990386;28;20100;-69
2022/05/27 13:31:40;;;;;;;3.28;0.80;;;23.00;59.70;;;;;;4998416;28;20022;-69
2022/05/27 13:34:14;;;;;;;1.13;0.60;;;23.10;59.90;;;;;;5000539;28;20030;-68
2022/05/27 13:36:51;;;;;;;5.00;0.70;;;23.20;59.80;;;;;;4997333;28;20046;-68
2022/05/27 13:39:38;;;;;;;0.95;0.50;;;23.20;60.30;;;;;;4999936;28;20105;-68
2022/05/27 13:42:09;;;;;;;1.33;0.60;;;23.10;59.60;;;;;;5005693;28;20038;-68
2022/05/27 13:44:41;;;;;;;1.27;0.50;;;23.10;59.80;;;;;;5007464;28;20038;-67
2022/05/27 13:47:13;;;;;;;1.20;0.50;;;22.90;59.60;;;;;;5001770;28;20033;-68
2022/05/27 13:49:42;;;;;;;1.52;0.60;;;22.90;60.40;;;;;;5007335;28;20046;-68
2022/05/27 13:52:17;;;;;;;1.02;0.60;;;23.00;59.80;;;;;;5002929;28;20042;-68
2022/05/27 13:54:43;;;;;;;1.77;0.60;;;23.10;59.90;;;;;;5008709;28;20046;-68